Latest Coastal Weather Observations for Williamtown

IDN60701

Issued at 3:15 pm EST Wednesday 3 September 2014 (issued every 10 minutes, with the page automatically refreshed every 10 minutes)

About coastal observations | Map of coastal stations | Coastal observations for NSW | Marine services | Other Formats
Station Details ID: 061078 Name: WILLIAMTOWN RAAF Lat: -32.79 Lon: 151.84 Height: 9.0 m
Data from the previous 72 hours. | See also: Recent months at Williamtown
Date/Time
EST
Temp

°C
Wind Pressure Rain
since 9am
mm
Weather Cloud Vis
km
Sea
Height
m
Swell
Dir
 
Speed
knots
Gust
knots
hPa Trend Height
m
Period
s
Dir
03/03:00pm 17.1 SW 22 34 1011.5 R 0.0 Fine Partly cloudy 30 - - - -
03/02:30pm 16.5 SW 22 32 1011.3 - 0.0 - Partly cloudy 10 - - - -
03/02:08pm 16.7 SW 18 28 1011.5 - 0.0 - Partly cloudy 10 - - - -
03/02:00pm 16.4 SW 19 27 1011.6 - 0.0 Showers Partly cloudy 10 - - - -
03/01:37pm 15.5 SW 25 38 1011.7 - 0.0 - Partly cloudy 10 - - - -
03/01:30pm 15.8 SW 22 31 1011.5 - 0.0 - Partly cloudy 10 - - - -
03/01:06pm 14.7 SSW 25 35 1011.8 - 0.0 Showers Partly cloudy 10 - - - -
03/01:00pm 17.0 SW 20 28 1011.6 - 0.0 Showers Partly cloudy 10 - - - -
03/12:30pm 15.0 SW 21 33 1012.0 - 0.0 - Partly cloudy 10 - - - -
03/12:00pm 15.0 SW 23 35 1012.3 R 0.0 Recent precip. Mostly cloudy 25 - - - -
03/11:32am 14.7 SW 20 30 1012.0 - 0.0 Showers Mostly clear 10 - - - -
03/11:30am 14.5 SW 21 30 1012.1 - 0.0 Showers Mostly clear 10 - - - -
03/11:03am 15.1 SW 21 33 1012.3 - 0.0 - Mostly clear 10 - - - -
03/11:00am 15.4 SW 20 29 1012.5 - 0.0 - Mostly clear 10 - - - -
03/10:35am 14.9 SW 21 32 1012.4 - 0.0 - Mostly clear 10 - - - -
03/10:30am 14.0 SW 21 28 1012.5 - 0.0 - Mostly clear 10 - - - -
03/10:00am 14.5 SW 21 31 1012.1 - 0.0 - Mostly clear 10 - - - -
03/09:30am 13.0 SW 23 36 1012.3 - 0.0 - Mostly clear 10 - - - -
03/09:23am 12.9 SW 25 36 1012.3 - 0.0 - Mostly clear 10 - - - -
03/09:20am 12.9 SSW 25 31 1012.2 - 0.0 - Mostly clear 10 - - - -
03/09:06am 13.2 WSW 19 29 1011.9 - 0.0 - Mostly clear 10 - - - -
03/09:00am 12.8 SW 21 29 1012.0 R 3.2 Fine Mostly cloudy 20 - - - -
03/08:30am 12.5 WSW 19 30 1012.0 - 3.2 - Mostly clear 10 - - - -
03/08:00am 11.6 WSW 19 29 1011.8 - 3.2 - Mostly clear 10 - - - -
03/07:38am 11.3 WSW 18 32 1011.7 - 3.2 Showers Mostly clear 10 - - - -
03/07:30am 11.2 WSW 19 27 1011.7 - 3.2 Showers Mostly clear 10 - - - -
03/07:00am 11.2 WSW 18 29 1011.1 - 3.2 Showers Mostly clear 10 - - - -
03/06:52am 11.0 WSW 17 28 1011.2 - 3.2 Showers Mostly clear 10 - - - -
03/06:30am 11.0 WSW 16 23 1010.6 - 3.2 Showers Mostly clear 10 - - - -
03/06:07am 10.9 WSW 19 29 1010.2 - 3.2 - Mostly clear 10 - - - -
03/06:00am 10.4 W 18 25 1010.1 F 3.2 Distant precip. Mostly cloudy 20 - - - -
03/05:33am 11.3 WSW 17 27 1009.9 - 3.2 - Partly cloudy 10 - - - -
03/05:30am 11.3 WSW 17 24 1009.7 - 3.2 - Partly cloudy 10 - - - -
03/05:00am 11.1 WSW 19 29 1009.7 - 3.2 - Partly cloudy 10 - - - -
03/04:30am 11.0 WSW 17 28 1009.5 - 3.2 - Partly cloudy 10 - - - -
03/04:03am 10.9 WSW 18 28 1009.5 - 3.2 - Partly cloudy 10 - - - -
03/04:00am 10.9 WSW 19 28 1009.4 - 3.2 - Partly cloudy 10 - - - -
03/03:57am 10.6 WSW 18 28 1009.3 - 3.2 - Partly cloudy 10 - - - -
03/03:30am 10.5 WSW 19 26 1009.1 - 3.2 - Partly cloudy 10 - - - -
03/03:05am 10.4 WSW 20 30 1008.9 - 3.2 - Cloudy 10 - - - -
03/03:00am 10.5 WSW 21 30 1009.1 - 3.2 - Cloudy 10 - - - -
03/02:30am 10.7 WSW 21 31 1009.2 - 3.2 - Cloudy 10 - - - -
03/02:00am 10.7 WSW 21 32 1009.5 - 3.2 - Partly cloudy 10 - - - -
03/01:30am 10.4 W 18 28 1009.9 - 3.2 - Partly cloudy 10 - - - -
03/01:00am 10.0 W 18 29 1010.3 - 3.2 - Partly cloudy 10 - - - -
03/12:53am 10.0 W 18 29 1010.4 - 3.2 - Partly cloudy 10 - - - -
03/12:30am 9.9 WSW 16 24 1010.6 - 3.2 - Partly cloudy 10 - - - -
03/12:00am 9.6 W 18 25 1010.8 - 3.2 - Cloudy 10 - - - -
 
Date/Time
EST
Temp

°C
Wind Pressure Rain
since 9am
mm
Weather Cloud Vis
km
Sea
Height
m
Swell
Dir
 
Speed
knots
Gust
knots
hPa Trend Height
m
Period
s
Dir
02/11:34pm 9.8 WSW 16 27 1010.8 - 3.2 - Partly cloudy 10 - - - -
02/11:30pm 9.7 WSW 16 22 1010.8 - 3.2 - Partly cloudy 10 - - - -
02/11:05pm 10.7 WSW 20 30 1010.9 - 3.2 - Partly cloudy 10 - - - -
02/11:00pm 11.2 WSW 20 29 1010.8 - 3.2 - Partly cloudy 10 - - - -
02/10:48pm 11.7 WSW 18 28 1010.8 - 3.2 - Cloudy 10 - - - -
02/10:30pm 12.0 WSW 18 26 1010.6 - 3.2 - Partly cloudy 10 - - - -
02/10:28pm 12.0 WSW 19 26 1010.6 - 3.2 - Partly cloudy 10 - - - -
02/10:00pm 11.4 W 12 16 1010.4 - 3.2 - Cloudy 10 - - - -
02/09:30pm 11.5 W 12 16 1010.5 - 3.2 - Partly cloudy 10 - - - -
02/09:00pm 11.6 W 11 15 1010.6 - 3.2 - Cloudy 10 - - - -
02/08:30pm 10.7 WNW 10 15 1010.3 - 3.2 - Partly cloudy 10 - - - -
02/08:00pm 10.5 W 9 11 1010.3 - 3.2 - Mostly clear 10 - - - -
02/07:30pm 10.9 W 8 10 1010.2 - 3.2 - Mostly clear 10 - - - -
02/07:00pm 10.6 W 7 10 1009.8 - 3.2 - Mostly clear 10 - - - -
02/06:30pm 10.8 WSW 7 10 1009.8 - 3.0 - Mostly clear 10 - - - -
02/06:00pm 11.0 SW 12 17 1009.8 - 3.0 - Cloudy 10 - - - -
02/05:30pm 12.6 SSW 11 16 1008.5 - 2.8 Thunder Mostly clear 7 - - - -
02/05:00pm 13.8 WSW 7 9 1008.5 - 1.8 Thunderstorm Mostly clear 6 - - - -
02/04:49pm 14.2 S 5 6 1008.0 - 1.8 Thunder Mostly clear 10 - - - -
02/04:30pm 14.4 S 5 6 1007.8 - 1.8 - Mostly clear 10 - - - -
02/04:00pm 14.7 NNW 1 4 1007.8 - 1.8 - Mostly clear 10 - - - -
02/03:30pm 14.1 WSW 7 9 1008.0 - 1.6 Showers Mostly clear 10 - - - -
02/03:22pm 14.4 SW 6 8 1007.7 - 1.4 Thunder Mostly clear 10 - - - -
02/03:00pm 14.5 W 4 6 1007.7 R 1.4 Distant precip. Mostly cloudy 15 - - - -
02/02:30pm 13.7 W 7 8 1007.9 - 1.4 - Mostly clear 10 - - - -
02/02:00pm 13.3 WNW 8 11 1007.6 - 1.4 Showers Mostly clear 10 - - - -
02/01:30pm 12.4 NW 15 18 1007.7 - 1.4 - Mostly clear 10 - - - -
02/01:00pm 12.6 WNW 12 16 1007.6 - 1.2 Showers Mostly clear 9 - - - -
02/12:30pm 13.2 W 26 38 1007.9 - 0.2 Showers Mostly clear 5 - - - -
02/12:26pm 14.3 W 27 38 1007.5 - 0.0 Showers Mostly clear 6 - - - -
02/12:00pm 18.1 W 7 9 1007.2 F 0.0 Distant precip. Mostly cloudy 17 - - - -
02/11:31am 18.6 WNW 8 10 1008.0 - 0.0 - Cloudy 10 - - - -
02/11:30am 18.6 WNW 8 10 1008.0 - 0.0 - Cloudy 10 - - - -
02/11:00am 17.8 WNW 7 10 1008.6 - 0.0 - Mostly clear 10 - - - -
02/10:30am 17.0 NW 7 9 1009.0 - 0.0 - Mostly clear 10 - - - -
02/10:00am 15.7 NW 6 8 1009.7 - 0.0 Rain Mostly clear 10 - - - -
02/09:30am 14.7 NW 5 7 1010.0 - 0.0 - Partly cloudy 10 - - - -
02/09:00am 14.4 NW 8 9 1010.5 R 0.0 Fine Mostly cloudy 25 - - - -
02/08:30am 14.3 NW 8 9 1010.5 - 0.0 - Partly cloudy 10 - - - -
02/08:00am 13.8 WNW 10 14 1010.3 - 0.0 - Partly cloudy 10 - - - -
02/07:30am 14.1 WNW 11 15 1010.1 - 0.0 - Partly cloudy 10 - - - -
02/07:00am 12.7 W 7 9 1009.8 - 0.0 - Partly cloudy 10 - - - -
02/06:30am 12.5 NNW 5 6 1009.3 - 0.0 - Partly cloudy 10 - - - -
02/06:00am 13.1 NW 8 10 1009.2 F 0.0 Fine Mostly cloudy 25 - - - -
02/05:30am 12.5 W 7 9 1008.7 - 0.0 - Partly cloudy 10 - - - -
02/05:00am 12.4 N 1 5 1008.3 - 0.0 - Partly cloudy 10 - - - -
02/04:30am 12.8 N 3 4 1008.4 - 0.0 - - 10 - - - -
02/04:00am 13.4 N 5 7 1008.6 - 0.0 - - 10 - - - -
02/03:30am 12.8 N 4 6 1008.8 - 0.0 - - 10 - - - -
02/03:00am 12.2 NW 1 6 1009.0 - 0.0 - - 10 - - - -
02/02:30am 13.1 CALM 0 0 1009.3 - 0.0 - - 10 - - - -
02/02:00am 13.1 CALM 0 0 1010.0 - 0.0 - - 10 - - - -
02/01:30am 13.6 NNE 4 6 1010.5 - 0.0 - - 10 - - - -
02/01:00am 12.9 CALM 0 0 1010.9 - 0.0 - - 10 - - - -
02/12:30am 12.5 CALM 0 0 1011.3 - 0.0 - - 10 - - - -
02/12:00am 13.4 CALM 0 0 1011.6 - 0.0 - - 10 - - - -
 
Date/Time
EST
Temp

°C
Wind Pressure Rain
since 9am
mm
Weather Cloud Vis
km
Sea
Height
m
Swell
Dir
 
Speed
knots
Gust
knots
hPa Trend Height
m
Period
s
Dir
01/11:30pm 13.3 CALM 0 0 1011.9 - 0.0 - - 10 - - - -
01/11:00pm 14.3 NNE 3 4 1012.1 - 0.0 - - 10 - - - -
01/10:30pm 15.1 N 5 6 1012.2 - 0.0 - - 10 - - - -
01/10:00pm 15.6 NNE 7 8 1012.3 - 0.0 - - 10 - - - -
01/09:30pm 15.7 NNE 6 8 1012.6 - 0.0 - - 10 - - - -
01/09:00pm 16.1 NNE 8 11 1012.9 - 0.0 - - 10 - - - -
01/08:30pm 16.0 NNE 8 11 1012.9 - 0.0 - - 10 - - - -
01/08:00pm 15.3 NNE 5 6 1012.9 - 0.0 - - 10 - - - -
01/07:30pm 15.7 N 5 6 1012.9 - 0.0 - - 10 - - - -
01/07:00pm 16.7 NNE 6 7 1012.5 - 0.0 - - 10 - - - -
01/06:30pm 17.0 NE 7 8 1012.3 - 0.0 - - 10 - - - -
01/06:00pm 17.9 ENE 7 9 1012.3 - 0.0 - - 10 - - - -
01/05:30pm 18.9 NE 4 6 1012.2 - 0.0 - - 10 - - - -
01/05:00pm 20.4 NW 5 7 1012.1 - 0.0 - - 10 - - - -
01/04:30pm 21.6 WNW 8 10 1011.9 - 0.0 - - 10 - - - -
01/04:00pm 22.4 WNW 10 13 1011.8 - 0.0 - - 10 - - - -
01/03:30pm 22.8 NNW 8 11 1011.7 - 0.0 - - 10 - - - -
01/03:00pm 23.4 WNW 11 16 1012.2 F 0.0 Fine Mostly cloudy 30 - - - -
01/02:30pm 23.0 WNW 15 19 1012.5 - 0.0 - Mostly clear 10 - - - -
01/02:00pm 23.6 NW 13 19 1013.1 - 0.0 - Mostly clear 10 - - - -
01/01:30pm 23.8 WNW 14 19 1013.5 - 0.0 - Mostly clear 10 - - - -
01/01:00pm 22.6 WNW 11 17 1013.9 - 0.0 - Mostly clear 10 - - - -
01/12:30pm 20.8 NW 7 12 1014.3 - 0.0 - Mostly clear 10 - - - -
01/12:00pm 21.3 NNW 7 10 1014.9 F 0.0 Fine Mostly cloudy 30 - - - -
01/11:30am 20.8 NNW 7 10 1015.5 - 0.0 - Mostly clear 10 - - - -
01/11:00am 19.7 NW 9 14 1016.2 - 0.0 - Mostly clear 10 - - - -
01/10:30am 18.7 NW 7 9 1016.8 - 0.0 - - 10 - - - -
01/10:00am 16.9 NW 8 10 1017.3 - 0.0 - - 10 - - - -
01/09:30am 15.7 NNW 7 10 1017.8 - 0.0 - - 10 - - - -
01/09:00am 14.4 NW 9 12 1018.2 F 0.2 Fine Partly cloudy 25 - - - -
01/08:30am 13.0 NW 10 14 1018.1 - 0.2 - Mostly clear 10 - - - -
01/08:00am 11.8 NW 7 9 1017.9 - 0.2 - Mostly clear 10 - - - -
01/07:30am 10.6 NW 5 6 1017.8 - 0.2 - Mostly clear 10 - - - -
01/07:00am 9.5 NNW 4 5 1017.8 - 0.2 Fog Mostly clear 10 - - - -
01/06:30am 8.5 NNW 4 5 1017.6 - 0.2 Fog Partly cloudy 0.5 - - - -
01/06:00am 8.1 WNW 7 8 1017.5 F 0.2 Distant fog Mostly clear 12 - - - -
01/05:30am 7.6 NW 5 6 1017.0 - 0.2 - - - - - - -
01/05:00am 7.3 NW 4 4 1016.8 - 0.2 - Partly cloudy - - - - -
01/04:58am 7.1 NW 4 4 1016.8 - 0.2 - Partly cloudy - - - - -
01/04:30am 6.6 WNW 4 5 1016.7 - 0.2 - Cloudy - - - - -
01/04:00am 6.6 CALM 0 0 1016.3 - 0.2 - Cloudy - - - - -
01/03:32am 6.8 CALM 0 0 1016.4 - 0.2 - Cloudy - - - - -
01/03:30am 6.8 CALM 0 0 1016.5 - 0.2 - Cloudy - - - - -
01/03:22am 6.8 CALM 0 0 1016.5 - 0.2 - Cloudy 0.3 - - - -
01/03:15am 7.0 CALM 0 0 1016.6 - 0.2 - Cloudy 0.5 - - - -
01/03:14am 6.9 CALM 0 0 1016.6 - 0.2 - Cloudy 0.6 - - - -
01/03:01am 7.0 CALM 0 0 1016.7 - 0.2 - Cloudy 0.1 - - - -
01/03:00am 7.0 CALM 0 0 1016.8 - 0.2 - Cloudy - - - - -
01/02:53am 6.7 CALM 0 0 1016.8 - 0.2 - Partly cloudy - - - - -
01/02:30am 7.6 CALM 0 0 1017.0 - 0.2 - Partly cloudy - - - - -
01/02:00am 7.3 CALM 0 0 1017.2 - 0.2 - Partly cloudy - - - - -
01/01:30am 7.8 CALM 0 0 1017.5 - 0.2 - Partly cloudy - - - - -
01/01:29am 7.8 CALM 0 0 1017.5 - 0.2 - Partly cloudy - - - - -
01/01:14am 8.4 CALM 0 0 1017.7 - 0.2 - Partly cloudy 4 - - - -
01/01:12am 8.3 CALM 0 0 1017.7 - 0.2 - Partly cloudy 5 - - - -
01/01:01am 7.9 CALM 0 0 1017.8 - 0.2 - Partly cloudy 10 - - - -
01/01:00am 8.0 CALM 0 0 1017.8 - 0.2 - Partly cloudy 10 - - - -
01/12:40am 8.5 N 1 3 1017.8 - 0.2 - Partly cloudy 1 - - - -
01/12:30am 8.1 N 2 4 1017.9 - 0.2 - Partly cloudy 0.3 - - - -
01/12:22am 8.4 CALM 0 3 1017.9 - 0.2 - Partly cloudy 0.7 - - - -
01/12:17am 8.8 CALM 0 0 1017.9 - 0.2 - Partly cloudy 6 - - - -
01/12:02am 8.5 CALM 0 0 1017.9 - 0.2 - - 4 - - - -
01/12:01am 8.6 CALM 0 0 1017.9 - 0.2 - - 10 - - - -
01/12:00am 8.6 CALM 0 0 1018.0 - 0.2 - - 10 - - - -
 
Date/Time
EST
Temp

°C
Wind Pressure Rain
since 9am
mm
Weather Cloud Vis
km
Sea
Height
m
Swell
Dir
 
Speed
knots
Gust
knots
hPa Trend Height
m
Period
s
Dir
31/11:45pm 8.7 CALM 0 0 1018.0 - 0.2 - - 2 - - - -
31/11:44pm 8.9 CALM 0 0 1018.0 - 0.2 - - 2 - - - -
31/11:41pm 8.9 CALM 0 0 1018.0 - 0.2 - - - - - - -
31/11:38pm 8.9 CALM 0 0 1018.0 - 0.2 - - - - - - -
31/11:36pm 9.1 CALM 0 0 1018.0 - 0.2 - - - - - - -
31/11:34pm 9.0 CALM 0 0 1018.0 - 0.2 - - 10 - - - -
31/11:32pm 8.9 CALM 0 0 1018.0 - 0.2 - - 10 - - - -
31/11:30pm 8.8 CALM 0 0 1018.0 - 0.2 - - 2 - - - -
31/11:11pm 9.8 CALM 0 0 1018.2 - 0.2 - Partly cloudy 0.3 - - - -
31/11:07pm 9.9 CALM 0 0 1018.2 - 0.2 - - - - - - -
31/11:00pm 9.8 CALM 0 0 1018.2 - 0.2 - - - - - - -
31/10:30pm 10.1 CALM 0 3 1018.2 - 0.2 - - 10 - - - -
31/10:00pm 10.6 N 4 5 1018.5 - 0.2 - - - - - - -
31/09:30pm 11.0 NNW 5 6 1018.5 - 0.2 - - - - - - -
31/09:00pm 10.2 CALM 0 0 1018.6 - 0.2 - - - - - - -
31/08:30pm 11.1 NW 4 5 1018.2 - 0.2 - - - - - - -
31/08:00pm 11.8 ENE 2 4 1018.1 - 0.2 - - - - - - -
31/07:30pm 12.3 NNE 3 4 1018.1 - 0.2 - - 10 - - - -
31/07:00pm 13.9 ENE 4 5 1018.0 - 0.2 - - 10 - - - -
31/06:30pm 14.5 ENE 4 5 1017.8 - 0.2 - - 10 - - - -
31/06:00pm 15.6 E 5 6 1017.8 - 0.2 - - - - - - -
31/05:30pm 16.4 ESE 6 8 1017.6 - 0.2 - - 10 - - - -
31/05:00pm 17.3 SE 8 9 1017.6 - 0.2 - - - - - - -
31/04:30pm 17.9 SSE 9 12 1017.5 - 0.2 - - - - - - -
31/04:00pm 18.4 SSE 10 12 1017.4 - 0.2 - - - - - - -
31/03:30pm 18.5 SSE 10 14 1017.4 - 0.2 - - 10 - - - -

Other Formats:

Comma delimited format used in spreadsheet applications
http://www.bom.gov.au/fwo/IDN60701/IDN60701.94776.axf

JavaScript Object Notation format (JSON) in row-major order
http://www.bom.gov.au/fwo/IDN60701/IDN60701.94776.json